Terminal Aerodrome Forecast
Issued by NWS Des Moines, IA

Home | Current Version | Previous Version | Text Only | Print | Product List | Glossary On
Versions: 1 2 3 4 5 6 7 8 9 10 11 12 13 14 15 16 17 18 19 20 21 22 23 24 25 26 27 28 29 30 31 32 33 34 35 36 37 38
000
FTUS43 KDMX 281136
TAFDSM
TAF
KDSM 281136Z 2812/2912 35006KT 6SM -SHRA VCTS BKN020CB OVC050
     FM281500 36010G18KT P6SM VCSH OVC060
     FM281800 36012G21KT P6SM BKN100
     FM290100 34007KT P6SM FEW250=

USA.gov is the U.S. government's official web portal to all federal, state and local government web resources and services.